Time;durP1;ratioP1;P1;durP2;ratioP2;P2;SDS_P1;SDS_P2;PMS_P1;PMS_P2;Temp;Humidity;BMP_temperature;BMP_pressure;BME280_temperature;BME280_humidity;BME280_pressure;Samples;Min_cycle;Max_cycle;Signal;HPM_P1;HPM_P2
2022/12/28 00:01:23;;;;;;;6.60;3.22;;;0.30;99.90;;;;;;5047446;28;20024;-74
2022/12/28 00:03:50;;;;;;;4.85;3.10;;;0.30;99.90;;;;;;5046044;28;20032;-76
2022/12/28 00:06:17;;;;;;;5.82;3.25;;;0.20;99.90;;;;;;5060665;28;20021;-75
2022/12/28 00:08:43;;;;;;;5.15;3.08;;;0.20;99.90;;;;;;5059787;28;20032;-75
2022/12/28 00:11:15;;;;;;;5.63;3.20;;;0.10;99.90;;;;;;5051723;28;20029;-75
2022/12/28 00:13:41;;;;;;;5.50;2.60;;;0.10;99.90;;;;;;5041779;28;20044;-75
2022/12/28 00:16:15;;;;;;;4.45;3.17;;;0.10;99.90;;;;;;5048615;28;20025;-74
2022/12/28 00:18:42;;;;;;;5.15;2.95;;;0.10;99.90;;;;;;5053495;28;20120;-75
2022/12/28 00:21:07;;;;;;;5.97;2.72;;;0.20;99.90;;;;;;5048625;28;20155;-75
2022/12/28 00:23:33;;;;;;;9.82;2.65;;;0.20;99.90;;;;;;5067370;28;20071;-76
2022/12/28 00:26:12;;;;;;;5.43;2.78;;;0.20;99.90;;;;;;5052319;28;20610;-75
2022/12/28 00:28:39;;;;;;;4.57;2.10;;;0.10;99.90;;;;;;5068604;28;20024;-75
2022/12/28 00:31:05;;;;;;;8.73;2.75;;;0.10;99.90;;;;;;5069466;28;20123;-76
2022/12/28 00:33:31;;;;;;;7.53;2.63;;;0.10;99.90;;;;;;5066556;28;20028;-76
2022/12/28 00:35:59;;;;;;;3.45;2.22;;;0.10;99.90;;;;;;5052090;28;20048;-76
2022/12/28 00:38:26;;;;;;;5.05;2.75;;;0.10;99.90;;;;;;5068448;28;20158;-77
2022/12/28 00:40:52;;;;;;;5.68;2.95;;;0.00;99.90;;;;;;5038428;28;20041;-77
2022/12/28 00:43:18;;;;;;;5.50;2.35;;;0.00;99.90;;;;;;5050269;28;20036;-77
2022/12/28 00:45:48;;;;;;;6.60;2.60;;;0.10;99.90;;;;;;5061452;28;20033;-77
2022/12/28 00:48:14;;;;;;;6.47;2.38;;;0.10;99.90;;;;;;5064703;28;20106;-77
2022/12/28 00:50:41;;;;;;;4.65;2.47;;;0.10;99.90;;;;;;5069388;28;20028;-75
2022/12/28 00:53:09;;;;;;;5.25;2.70;;;0.00;99.90;;;;;;5072119;28;20024;-75
2022/12/28 00:55:35;;;;;;;4.45;2.53;;;0.00;99.90;;;;;;5067769;28;20037;-77
2022/12/28 00:58:02;;;;;;;6.15;2.50;;;0.00;99.90;;;;;;5052582;28;20065;-76
2022/12/28 01:00:28;;;;;;;6.07;2.30;;;0.00;99.90;;;;;;5049380;28;20029;-76
2022/12/28 01:02:54;;;;;;;4.47;2.22;;;0.00;99.90;;;;;;5047431;28;20617;-77
2022/12/28 01:05:21;;;;;;;6.30;2.80;;;0.00;99.90;;;;;;5047407;28;20037;-77
2022/12/28 01:07:47;;;;;;;4.95;2.47;;;0.00;99.90;;;;;;5047030;28;20438;-75
2022/12/28 01:10:13;;;;;;;5.97;2.42;;;0.00;99.90;;;;;;5046105;28;20025;-77
2022/12/28 01:12:39;;;;;;;5.28;2.25;;;0.00;99.90;;;;;;5055586;28;20826;-77
2022/12/28 01:15:07;;;;;;;5.85;2.70;;;0.00;99.90;;;;;;5046984;28;20044;-77
2022/12/28 01:17:33;;;;;;;5.53;2.55;;;0.00;99.90;;;;;;5054218;28;20077;-76
2022/12/28 01:19:59;;;;;;;4.10;2.65;;;0.00;99.90;;;;;;5049025;28;20033;-76
2022/12/28 01:22:26;;;;;;;3.92;2.58;;;0.00;99.90;;;;;;5049807;28;20032;-76
2022/12/28 01:24:51;;;;;;;7.30;2.60;;;0.00;99.90;;;;;;5052131;28;20033;-77
2022/12/28 01:27:18;;;;;;;4.25;2.50;;;0.00;99.90;;;;;;5064485;28;20140;-77
2022/12/28 01:29:44;;;;;;;6.30;3.33;;;0.00;99.90;;;;;;5072577;28;20029;-77
2022/12/28 01:32:09;;;;;;;6.68;2.53;;;0.00;99.90;;;;;;5071454;28;20373;-77
2022/12/28 01:34:35;;;;;;;5.47;2.70;;;0.00;99.90;;;;;;5069448;28;20033;-77
2022/12/28 01:37:02;;;;;;;7.95;2.70;;;0.00;99.90;;;;;;5047194;28;20037;-75
2022/12/28 01:39:28;;;;;;;5.45;2.60;;;0.00;99.90;;;;;;5048001;28;20052;-75
2022/12/28 01:41:54;;;;;;;9.23;3.08;;;0.00;99.90;;;;;;5041870;28;20126;-76
2022/12/28 01:44:23;;;;;;;5.00;2.55;;;0.00;99.90;;;;;;5055988;28;20135;-77
2022/12/28 01:46:56;;;;;;;6.75;2.60;;;0.10;99.90;;;;;;5056810;28;20020;-77
2022/12/28 01:49:26;;;;;;;6.78;2.28;;;0.00;99.90;;;;;;5052868;28;20381;-77
2022/12/28 01:51:58;;;;;;;3.75;2.20;;;0.00;99.90;;;;;;5067989;28;20024;-76
2022/12/28 01:54:26;;;;;;;4.25;2.35;;;0.00;99.90;;;;;;5062864;28;20163;-76
2022/12/28 01:56:53;;;;;;;5.95;2.65;;;0.00;99.90;;;;;;5056805;28;20089;-77
2022/12/28 01:59:23;;;;;;;3.97;2.30;;;0.00;99.90;;;;;;5052358;28;20032;-77
2022/12/28 02:01:50;;;;;;;6.65;2.58;;;0.00;99.90;;;;;;5058703;28;20033;-76
2022/12/28 02:04:16;;;;;;;3.47;2.70;;;0.00;99.90;;;;;;5046656;28;20021;-76
2022/12/28 02:06:44;;;;;;;9.23;4.15;;;0.00;99.90;;;;;;5047189;28;20712;-76
2022/12/28 02:09:17;;;;;;;5.40;2.50;;;0.10;99.90;;;;;;5048628;28;20052;-75
2022/12/28 02:11:44;;;;;;;6.65;2.88;;;0.00;99.90;;;;;;5070981;28;20077;-76
2022/12/28 02:14:12;;;;;;;3.22;2.35;;;0.00;99.90;;;;;;5063449;28;20025;-75
2022/12/28 02:16:38;;;;;;;3.85;2.45;;;0.00;99.90;;;;;;5071396;28;20062;-76
2022/12/28 02:19:07;;;;;;;3.63;2.50;;;0.10;99.90;;;;;;5053299;28;20037;-76
2022/12/28 02:21:54;;;;;;;4.18;2.88;;;0.00;99.90;;;;;;5053637;28;20073;-76
2022/12/28 02:24:51;;;;;;;4.90;2.20;;;0.00;99.90;;;;;;5033922;28;20021;-76
2022/12/28 02:27:55;;;;;;;5.65;2.72;;;0.00;99.90;;;;;;5051466;28;20085;-76
2022/12/28 02:30:23;;;;;;;4.93;2.40;;;0.00;99.90;;;;;;5046962;28;20033;-76
2022/12/28 02:33:00;;;;;;;4.55;2.78;;;0.00;99.90;;;;;;5061992;28;20115;-75
2022/12/28 02:35:28;;;;;;;;;;;0.00;99.90;;;;;;5069617;28;20023;-76
2022/12/28 02:38:36;;;;;;;3.05;2.05;;;0.00;99.90;;;;;;5071781;28;20353;-76
2022/12/28 02:41:09;;;;;;;3.33;2.15;;;0.10;99.90;;;;;;5069154;28;20037;-76
2022/12/28 02:43:38;;;;;;;2.67;2.00;;;0.10;99.90;;;;;;5050784;28;20029;-76
2022/12/28 02:52:23;;;;;;;3.72;2.30;;;0.30;99.90;;;;;;5054346;28;20127;-76
2022/12/28 02:58:15;;;;;;;3.70;2.20;;;0.30;99.90;;;;;;5060130;28;20035;-76
2022/12/28 03:01:02;;;;;;;3.92;2.20;;;0.40;99.90;;;;;;5042317;28;20044;-76
2022/12/28 03:03:31;;;;;;;4.20;2.50;;;0.50;99.90;;;;;;5050582;28;20051;-75
2022/12/28 03:09:19;;;;;;;3.97;2.70;;;0.60;99.90;;;;;;5070492;28;20039;-76
2022/12/28 03:12:04;;;;;;;3.28;1.92;;;0.60;99.90;;;;;;5067316;28;20200;-76
2022/12/28 03:14:42;;;;;;;2.85;2.00;;;0.50;99.90;;;;;;5059942;28;20028;-76
2022/12/28 03:31:22;;;;;;;6.47;2.70;;;0.50;99.90;;;;;;5031046;28;20023;-76
2022/12/28 03:34:05;;;;;;;7.93;3.08;;;0.60;99.90;;;;;;5058409;28;20051;-76
2022/12/28 03:36:44;;;;;;;4.88;2.90;;;0.60;99.90;;;;;;5036851;28;20094;-76
2022/12/28 03:39:19;;;;;;;4.57;2.72;;;0.50;99.90;;;;;;5068147;28;20446;-76
2022/12/28 03:44:49;;;;;;;6.32;2.55;;;0.50;99.90;;;;;;5053091;28;20111;-76
2022/12/28 03:47:19;;;;;;;5.78;3.20;;;0.60;99.90;;;;;;5062527;28;20032;-76
2022/12/28 03:49:45;;;;;;;3.67;2.83;;;0.60;99.90;;;;;;5067453;28;20036;-76
2022/12/28 03:52:12;;;;;;;3.88;2.67;;;0.60;99.90;;;;;;5055242;28;20025;-77
2022/12/28 03:54:39;;;;;;;4.53;3.10;;;0.60;99.90;;;;;;5053338;28;20032;-76
2022/12/28 03:57:06;;;;;;;6.13;3.38;;;0.50;99.90;;;;;;5032414;28;20028;-76
2022/12/28 03:59:37;;;;;;;6.57;3.30;;;0.50;99.90;;;;;;5045159;28;20129;-77
2022/12/28 04:02:05;;;;;;;5.00;3.30;;;0.60;99.90;;;;;;5034790;28;20036;-76
2022/12/28 04:04:32;;;;;;;5.95;3.53;;;0.60;99.90;;;;;;5050729;28;20032;-76
2022/12/28 04:06:59;;;;;;;8.77;4.60;;;0.60;99.90;;;;;;5053086;28;20477;-76
2022/12/28 04:09:25;;;;;;;7.82;4.43;;;0.70;99.90;;;;;;5053932;28;20107;-76
2022/12/28 04:11:52;;;;;;;7.45;4.22;;;0.70;99.90;;;;;;5042583;28;20021;-76
2022/12/28 04:14:26;;;;;;;5.45;3.67;;;0.80;99.90;;;;;;5049531;28;20036;-76
2022/12/28 04:16:52;;;;;;;8.85;4.18;;;0.80;99.90;;;;;;5062741;28;20025;-76
2022/12/28 04:19:19;;;;;;;10.55;5.50;;;0.80;99.90;;;;;;5032906;28;20115;-75
2022/12/28 04:21:46;;;;;;;7.70;4.93;;;0.90;99.90;;;;;;5029836;28;20047;-77
2022/12/28 04:24:13;;;;;;;8.98;5.70;;;1.00;99.90;;;;;;5033453;28;20055;-76
2022/12/28 04:26:39;;;;;;;11.93;5.68;;;1.00;99.90;;;;;;5033413;28;20021;-76
2022/12/28 04:29:06;;;;;;;12.90;6.07;;;1.00;99.90;;;;;;5034861;28;20027;-77
2022/12/28 04:31:47;;;;;;;12.15;5.88;;;1.10;99.90;;;;;;5037277;28;20021;-76
2022/12/28 04:34:16;;;;;;;9.48;5.10;;;1.10;99.90;;;;;;5056955;28;20031;-76
2022/12/28 04:36:50;;;;;;;10.63;5.13;;;1.10;99.90;;;;;;5069022;28;20025;-77
2022/12/28 04:39:19;;;;;;;10.50;5.50;;;1.20;99.90;;;;;;5050531;28;20040;-76
2022/12/28 04:41:45;;;;;;;7.10;4.90;;;1.20;99.90;;;;;;5052258;28;20021;-77
2022/12/28 04:44:11;;;;;;;12.23;6.75;;;1.30;99.90;;;;;;5068633;28;20028;-77
2022/12/28 04:46:37;;;;;;;8.30;5.40;;;1.30;99.90;;;;;;5069912;28;20115;-77
2022/12/28 04:49:03;;;;;;;10.57;5.90;;;1.40;99.90;;;;;;5070497;28;20040;-77
2022/12/28 04:51:29;;;;;;;11.77;6.15;;;1.40;99.90;;;;;;5052267;28;20024;-76
2022/12/28 04:53:56;;;;;;;10.30;6.70;;;1.40;99.90;;;;;;5066991;28;20163;-77
2022/12/28 04:56:24;;;;;;;12.80;6.50;;;1.50;99.90;;;;;;5050273;28;20441;-75
2022/12/28 04:58:58;;;;;;;10.93;6.15;;;1.50;99.90;;;;;;5058824;28;20040;-76
2022/12/28 05:01:24;;;;;;;8.52;5.45;;;1.60;99.90;;;;;;5045373;28;20484;-76
2022/12/28 05:03:52;;;;;;;9.75;6.45;;;1.50;99.90;;;;;;5060188;28;20124;-76
2022/12/28 05:06:20;;;;;;;12.18;6.70;;;1.60;99.90;;;;;;5072899;28;20637;-75
2022/12/28 05:08:46;;;;;;;10.02;6.45;;;1.60;99.90;;;;;;5056146;28;20103;-76
2022/12/28 05:11:18;;;;;;;10.77;6.93;;;1.60;99.90;;;;;;5061826;28;20101;-76
2022/12/28 05:13:44;;;;;;;11.23;5.78;;;1.60;99.90;;;;;;5071931;28;20060;-78
2022/12/28 05:16:13;;;;;;;12.88;6.07;;;1.60;99.90;;;;;;5067725;28;20128;-78
2022/12/28 05:18:39;;;;;;;10.07;5.75;;;1.60;99.90;;;;;;5072936;28;20095;-79
2022/12/28 05:21:09;;;;;;;9.63;5.85;;;1.70;99.90;;;;;;5072175;28;20392;-77
2022/12/28 05:23:37;;;;;;;10.50;5.88;;;1.70;99.90;;;;;;5069814;28;20028;-77
2022/12/28 05:26:07;;;;;;;8.93;5.63;;;1.80;99.90;;;;;;5051311;28;20064;-76
2022/12/28 05:28:34;;;;;;;9.75;5.72;;;1.80;99.90;;;;;;5072195;28;20034;-77
2022/12/28 05:31:02;;;;;;;9.25;5.43;;;1.90;99.90;;;;;;5048579;28;20028;-76
2022/12/28 05:33:30;;;;;;;9.43;5.60;;;1.90;99.90;;;;;;5064288;28;20020;-77
2022/12/28 05:35:56;;;;;;;15.25;6.55;;;1.90;99.90;;;;;;5069432;28;20648;-78
2022/12/28 05:38:22;;;;;;;8.27;5.65;;;1.90;99.90;;;;;;5072625;28;20020;-78
2022/12/28 05:40:48;;;;;;;9.82;5.80;;;2.00;99.90;;;;;;5062615;28;20543;-78
2022/12/28 05:43:14;;;;;;;8.65;5.43;;;2.00;99.90;;;;;;5039917;28;20040;-77
2022/12/28 05:45:40;;;;;;;8.52;5.50;;;2.00;99.90;;;;;;5045302;28;20089;-77
2022/12/28 05:48:06;;;;;;;7.70;5.13;;;2.00;99.90;;;;;;5046179;28;20028;-77
2022/12/28 05:50:32;;;;;;;8.63;4.97;;;1.90;99.90;;;;;;5050661;28;20033;-77
2022/12/28 05:52:58;;;;;;;11.65;5.50;;;1.90;99.90;;;;;;5072239;28;20040;-78
2022/12/28 05:55:24;;;;;;;6.32;4.78;;;1.90;99.90;;;;;;5068666;28;20453;-77
2022/12/28 05:57:53;;;;;;;8.15;4.97;;;1.90;99.90;;;;;;5051140;28;20045;-77
2022/12/28 06:00:19;;;;;;;8.65;4.72;;;1.90;99.90;;;;;;5067150;28;20027;-78
2022/12/28 06:02:45;;;;;;;7.13;4.68;;;1.90;99.90;;;;;;5067554;28;20103;-77
2022/12/28 06:05:11;;;;;;;7.32;5.20;;;2.00;99.90;;;;;;5031712;28;20480;-77
2022/12/28 06:07:37;;;;;;;8.45;4.40;;;2.00;99.90;;;;;;5038392;28;20111;-79
2022/12/28 06:10:03;;;;;;;10.82;5.07;;;2.00;99.90;;;;;;5072728;28;20032;-78
2022/12/28 06:12:28;;;;;;;6.97;4.68;;;2.00;99.90;;;;;;5052740;28;20028;-78
2022/12/28 06:14:55;;;;;;;6.15;3.95;;;2.00;99.90;;;;;;5038356;28;20121;-78
2022/12/28 06:17:21;;;;;;;6.78;4.50;;;2.00;99.90;;;;;;5073464;28;20554;-77
2022/12/28 06:19:47;;;;;;;6.47;3.80;;;2.00;99.90;;;;;;5071770;28;20040;-77
2022/12/28 06:22:12;;;;;;;7.68;4.75;;;2.00;99.90;;;;;;5052648;28;20062;-75
2022/12/28 06:24:38;;;;;;;6.10;4.40;;;2.00;99.90;;;;;;5046613;28;20032;-78
2022/12/28 06:27:04;;;;;;;7.68;4.38;;;2.00;99.90;;;;;;5052159;28;20114;-78
2022/12/28 06:29:30;;;;;;;8.27;4.10;;;2.00;99.90;;;;;;5054271;28;20024;-78
2022/12/28 06:31:59;;;;;;;4.68;3.50;;;2.00;99.90;;;;;;5034251;28;20028;-77
2022/12/28 06:34:26;;;;;;;6.70;4.03;;;1.90;99.90;;;;;;5064314;28;20040;-78
2022/12/28 06:36:52;;;;;;;8.98;5.53;;;2.00;99.90;;;;;;5055245;28;20033;-78
2022/12/28 06:39:18;;;;;;;8.32;5.32;;;2.00;99.90;;;;;;5037442;28;20028;-77
2022/12/28 06:41:44;;;;;;;10.52;5.53;;;2.10;99.90;;;;;;5063960;28;20024;-77
2022/12/28 06:44:12;;;;;;;9.27;5.20;;;2.00;99.90;;;;;;5069118;28;20115;-78
2022/12/28 06:46:38;;;;;;;9.52;5.07;;;2.00;99.90;;;;;;5067446;28;20025;-78
2022/12/28 06:49:05;;;;;;;7.35;4.40;;;1.90;99.90;;;;;;5052461;28;20568;-78
2022/12/28 06:51:35;;;;;;;6.07;4.50;;;1.80;99.90;;;;;;5053311;28;20028;-78
2022/12/28 06:54:01;;;;;;;7.60;3.70;;;1.80;99.90;;;;;;5052203;28;20024;-78
2022/12/28 06:56:29;;;;;;;4.03;3.30;;;1.80;99.90;;;;;;5066465;28;20039;-78
2022/12/28 06:58:56;;;;;;;6.63;3.63;;;1.80;99.90;;;;;;5054707;28;20498;-78
2022/12/28 07:01:23;;;;;;;5.70;3.28;;;1.90;99.90;;;;;;5069990;28;20116;-78
2022/12/28 07:03:50;;;;;;;4.05;3.35;;;2.00;99.90;;;;;;5075995;28;20024;-77
2022/12/28 07:06:18;;;;;;;4.28;3.35;;;2.10;99.90;;;;;;5052911;28;20071;-78
2022/12/28 07:08:45;;;;;;;6.15;4.60;;;2.10;99.90;;;;;;5063431;28;20040;-78
2022/12/28 07:11:13;;;;;;;9.55;5.53;;;2.10;99.90;;;;;;5062473;28;20048;-78
2022/12/28 07:13:39;;;;;;;8.95;5.55;;;2.20;99.90;;;;;;5062951;28;20024;-77
2022/12/28 07:16:09;;;;;;;8.55;5.07;;;2.20;99.90;;;;;;5074733;28;21131;-79
2022/12/28 07:18:36;;;;;;;11.25;4.93;;;2.00;99.90;;;;;;5086522;28;20064;-78
2022/12/28 07:21:09;;;;;;;5.10;3.75;;;2.00;99.90;;;;;;5066773;28;20096;-78
2022/12/28 07:23:35;;;;;;;7.20;3.85;;;1.90;99.90;;;;;;5064752;28;20067;-78
2022/12/28 07:26:06;;;;;;;4.57;3.28;;;1.90;99.90;;;;;;5054861;28;20036;-78
2022/12/28 07:28:32;;;;;;;4.32;3.00;;;1.90;99.90;;;;;;5075490;28;20060;-78
2022/12/28 07:31:03;;;;;;;6.68;2.90;;;1.90;99.90;;;;;;5073533;28;20111;-78
2022/12/28 07:33:29;;;;;;;3.70;2.63;;;1.90;99.90;;;;;;5070221;28;20024;-77
2022/12/28 07:35:57;;;;;;;4.43;2.67;;;2.00;99.90;;;;;;5038350;28;20627;-78
2022/12/28 07:38:22;;;;;;;4.57;2.50;;;2.00;99.90;;;;;;5070725;28;20083;-77
2022/12/28 07:40:48;;;;;;;3.65;3.10;;;2.10;99.90;;;;;;5054142;28;20120;-77
2022/12/28 07:43:14;;;;;;;4.63;2.88;;;2.20;99.90;;;;;;5066211;28;20115;-77
2022/12/28 07:45:40;;;;;;;4.95;2.40;;;2.30;99.90;;;;;;5070325;28;20028;-79
2022/12/28 07:48:06;;;;;;;2.75;2.15;;;2.40;99.90;;;;;;5069966;28;21411;-75
2022/12/28 07:50:31;;;;;;;3.97;2.75;;;2.50;99.90;;;;;;5049759;28;20025;-77
2022/12/28 07:52:59;;;;;;;4.10;2.72;;;2.60;99.90;;;;;;5059910;28;20524;-78
2022/12/28 07:55:28;;;;;;;3.20;2.90;;;2.70;99.90;;;;;;5061793;28;20060;-77
2022/12/28 07:57:54;;;;;;;5.03;3.30;;;2.70;99.90;;;;;;5050770;28;20036;-77
2022/12/28 08:00:20;;;;;;;4.75;2.75;;;2.80;99.90;;;;;;5048804;28;20080;-78
2022/12/28 08:02:46;;;;;;;4.82;3.03;;;2.80;99.90;;;;;;5048590;28;20460;-78
2022/12/28 08:05:12;;;;;;;4.38;2.63;;;2.90;99.90;;;;;;5071333;28;20077;-77
2022/12/28 08:07:37;;;;;;;3.20;2.67;;;2.90;99.90;;;;;;5067874;28;20066;-78
2022/12/28 08:10:04;;;;;;;4.93;2.92;;;2.90;99.90;;;;;;5033905;28;20052;-77
2022/12/28 08:12:30;;;;;;;4.63;2.83;;;3.00;99.90;;;;;;5069046;28;20032;-76
2022/12/28 08:14:59;;;;;;;4.38;2.95;;;3.00;99.90;;;;;;5053232;28;20074;-78
2022/12/28 08:17:25;;;;;;;4.55;2.70;;;3.00;99.90;;;;;;5050325;28;20208;-76
2022/12/28 08:19:51;;;;;;;5.38;3.08;;;3.10;99.90;;;;;;5054946;28;20143;-77
2022/12/28 08:22:17;;;;;;;3.95;3.10;;;3.10;99.90;;;;;;5047257;28;20033;-77
2022/12/28 08:24:43;;;;;;;4.10;2.65;;;3.20;99.90;;;;;;5064224;28;20063;-77
2022/12/28 08:27:09;;;;;;;5.88;3.17;;;3.20;99.90;;;;;;5034698;28;20040;-77
2022/12/28 08:29:35;;;;;;;4.07;2.38;;;3.30;99.90;;;;;;5033906;28;20044;-77
2022/12/28 08:32:01;;;;;;;4.53;2.72;;;3.30;99.90;;;;;;5065392;28;20033;-77
2022/12/28 08:34:27;;;;;;;4.78;2.78;;;3.40;99.90;;;;;;5043392;28;20044;-77
2022/12/28 08:36:54;;;;;;;3.45;2.75;;;3.40;99.90;;;;;;5059100;28;20060;-78
2022/12/28 08:39:20;;;;;;;3.60;2.40;;;3.50;99.90;;;;;;5064866;28;20017;-78
2022/12/28 08:41:45;;;;;;;4.07;2.83;;;3.50;99.90;;;;;;5038528;28;20035;-79
2022/12/28 08:44:11;;;;;;;4.57;2.63;;;3.60;99.90;;;;;;5063884;28;20493;-79
2022/12/28 08:46:39;;;;;;;3.88;2.45;;;3.60;99.90;;;;;;5080000;28;20064;-78
2022/12/28 08:49:05;;;;;;;5.35;2.70;;;3.70;99.90;;;;;;5062476;28;20111;-78
2022/12/28 08:51:38;;;;;;;3.72;2.30;;;3.70;99.90;;;;;;5075039;28;20056;-78
2022/12/28 08:54:05;;;;;;;3.80;2.83;;;3.70;99.90;;;;;;5077727;28;20060;-78
2022/12/28 08:56:34;;;;;;;3.95;2.45;;;3.80;99.90;;;;;;5050460;28;20086;-79
2022/12/28 08:59:01;;;;;;;3.90;2.70;;;3.80;99.90;;;;;;5080331;28;20484;-79
2022/12/28 09:01:32;;;;;;;3.60;2.88;;;3.90;99.90;;;;;;5042265;28;20029;-79
2022/12/28 09:03:59;;;;;;;5.93;3.83;;;3.90;99.90;;;;;;5058986;28;20093;-80
2022/12/28 09:06:29;;;;;;;3.78;3.05;;;4.00;99.90;;;;;;5081098;28;20034;-78
2022/12/28 09:08:56;;;;;;;6.28;3.40;;;4.10;99.90;;;;;;5067901;28;20029;-78
2022/12/28 09:11:23;;;;;;;5.53;3.55;;;4.10;99.90;;;;;;5057165;28;20407;-79
2022/12/28 09:13:48;;;;;;;6.75;3.40;;;4.20;99.90;;;;;;5077452;28;20028;-78
2022/12/28 09:16:22;;;;;;;4.80;3.13;;;4.30;99.90;;;;;;5058657;28;20031;-78
2022/12/28 09:18:53;;;;;;;4.35;2.60;;;4.30;99.90;;;;;;5051572;28;20983;-79
2022/12/28 09:21:20;;;;;;;5.28;2.92;;;4.40;99.90;;;;;;5075963;28;20539;-79
2022/12/28 09:23:47;;;;;;;3.65;2.45;;;4.50;99.90;;;;;;5073628;28;20032;-78
2022/12/28 09:26:15;;;;;;;6.65;3.13;;;4.50;99.90;;;;;;5043162;28;20047;-79
2022/12/28 09:28:53;;;;;;;4.88;2.83;;;4.60;99.90;;;;;;5041653;28;20084;-79
2022/12/28 09:31:21;;;;;;;4.53;2.90;;;4.70;99.90;;;;;;5072009;28;20020;-78
2022/12/28 09:34:02;;;;;;;5.38;2.70;;;4.70;99.90;;;;;;5063700;28;20092;-79
2022/12/28 09:36:30;;;;;;;6.28;3.58;;;4.80;99.90;;;;;;5076160;28;20028;-78
2022/12/28 09:38:58;;;;;;;5.18;2.80;;;4.90;99.90;;;;;;5074802;28;20021;-78
2022/12/28 09:41:25;;;;;;;4.05;2.63;;;5.00;99.90;;;;;;5073384;28;20052;-78
2022/12/28 09:44:02;;;;;;;3.30;2.22;;;5.00;99.90;;;;;;5079818;28;20080;-80
2022/12/28 09:46:31;;;;;;;5.07;2.38;;;5.00;99.90;;;;;;5038782;28;20202;-78
2022/12/28 09:48:59;;;;;;;5.30;2.72;;;5.10;99.90;;;;;;5076872;28;20021;-79
2022/12/28 09:51:33;;;;;;;5.78;3.13;;;5.10;99.90;;;;;;5081284;28;20016;-79
2022/12/28 09:54:01;;;;;;;3.75;2.50;;;5.20;99.90;;;;;;5075495;28;20035;-81
2022/12/28 09:56:40;;;;;;;3.15;2.38;;;5.30;99.90;;;;;;5076782;28;20038;-79
2022/12/28 09:59:07;;;;;;;4.40;2.80;;;5.40;99.90;;;;;;5075351;28;20603;-81
2022/12/28 10:01:36;;;;;;;3.75;2.10;;;5.40;99.90;;;;;;5079981;28;20086;-78
2022/12/28 10:04:03;;;;;;;4.55;2.65;;;5.50;99.90;;;;;;5078502;28;20456;-78
2022/12/28 10:06:34;;;;;;;4.05;2.60;;;5.60;99.90;;;;;;5069858;28;20484;-79
2022/12/28 10:09:01;;;;;;;4.00;2.47;;;5.70;99.90;;;;;;5074814;28;20055;-79
2022/12/28 10:11:35;;;;;;;3.58;2.67;;;5.80;99.90;;;;;;5041122;28;20053;-79
2022/12/28 10:14:15;;;;;;;3.28;2.65;;;5.80;99.90;;;;;;5040329;28;20040;-78
2022/12/28 10:16:41;;;;;;;5.68;2.95;;;6.00;99.90;;;;;;5058718;28;20074;-79
2022/12/28 10:19:07;;;;;;;5.93;2.90;;;6.00;99.90;;;;;;5057859;28;20041;-78
2022/12/28 10:21:34;;;;;;;6.10;2.15;;;6.10;99.90;;;;;;5046853;28;20028;-78
2022/12/28 10:24:05;;;;;;;4.93;2.40;;;6.10;99.90;;;;;;5048046;28;20036;-79
2022/12/28 10:26:32;;;;;;;3.65;2.03;;;6.20;99.90;;;;;;5076892;28;20037;-78
2022/12/28 10:29:00;;;;;;;4.90;2.20;;;6.30;99.90;;;;;;5075765;28;20033;-79
2022/12/28 10:31:40;;;;;;;4.45;2.08;;;6.40;99.90;;;;;;5083242;28;20029;-79
2022/12/28 10:34:23;;;;;;;3.85;2.15;;;6.40;99.90;;;;;;5082270;28;20033;-78
2022/12/28 10:36:50;;;;;;;2.47;1.90;;;6.40;99.90;;;;;;5077424;28;20048;-80
2022/12/28 10:39:23;;;;;;;3.10;1.77;;;6.40;99.90;;;;;;5047030;28;20467;-80
2022/12/28 10:41:50;;;;;;;2.97;1.70;;;6.50;99.90;;;;;;5073132;28;20096;-79
2022/12/28 10:44:39;;;;;;;2.60;1.85;;;6.60;99.90;;;;;;5080630;28;20036;-79
2022/12/28 10:47:16;;;;;;;3.35;2.00;;;6.50;99.90;;;;;;5071593;28;20051;-79
2022/12/28 10:49:49;;;;;;;2.97;1.33;;;6.70;99.90;;;;;;5080622;28;20033;-78
2022/12/28 10:52:14;;;;;;;3.33;1.67;;;6.80;99.90;;;;;;5056321;28;20588;-79
2022/12/28 10:54:41;;;;;;;2.00;1.77;;;6.90;99.90;;;;;;5055459;28;20088;-78
2022/12/28 10:57:28;;;;;;;3.80;1.60;;;6.90;99.90;;;;;;5078044;28;20032;-79
2022/12/28 11:00:24;;;;;;;2.72;1.83;;;6.90;99.90;;;;;;5076669;28;20576;-76
2022/12/28 11:02:51;;;;;;;2.58;1.73;;;6.80;99.90;;;;;;5067501;28;20136;-79
2022/12/28 11:05:23;;;;;;;2.00;1.40;;;6.80;99.90;;;;;;5060238;28;20025;-79
2022/12/28 11:08:01;;;;;;;1.65;1.25;;;6.80;99.90;;;;;;5067690;28;20024;-79
2022/12/28 11:10:32;;;;;;;2.25;1.60;;;6.80;99.90;;;;;;5080471;28;20124;-80
2022/12/28 11:12:59;;;;;;;2.10;1.50;;;6.90;99.90;;;;;;5079982;28;20032;-79
2022/12/28 11:15:29;;;;;;;2.38;1.38;;;6.80;99.90;;;;;;5065563;28;20206;-80
2022/12/28 11:18:15;;;;;;;2.17;1.25;;;6.90;99.90;;;;;;5080818;28;20029;-79
2022/12/28 11:20:50;;;;;;;3.25;1.60;;;7.00;99.90;;;;;;5083635;28;20134;-80
2022/12/28 11:23:30;;;;;;;1.87;1.43;;;7.00;99.90;;;;;;5067771;28;20504;-80
2022/12/28 11:25:57;;;;;;;2.63;1.42;;;7.00;99.90;;;;;;5072558;28;20047;-79
2022/12/28 11:28:23;;;;;;;3.35;1.80;;;7.10;99.90;;;;;;5041701;28;20061;-79
2022/12/28 11:30:50;;;;;;;3.15;1.77;;;7.10;99.90;;;;;;5072936;28;20017;-79
2022/12/28 11:33:30;;;;;;;3.80;1.50;;;7.00;99.90;;;;;;5076159;28;20104;-79
2022/12/28 11:35:57;;;;;;;2.83;1.50;;;7.00;99.90;;;;;;5072270;28;20714;-79
2022/12/28 11:38:41;;;;;;;1.70;1.35;;;7.10;99.90;;;;;;5074793;28;20029;-80
2022/12/28 11:41:27;;;;;;;2.28;1.45;;;7.10;99.90;;;;;;5053788;28;20071;-78
2022/12/28 11:44:01;;;;;;;2.75;1.40;;;7.20;99.90;;;;;;5071373;28;20453;-79
2022/12/28 11:46:27;;;;;;;6.50;1.63;;;7.20;99.90;;;;;;5050857;28;20115;-79
2022/12/28 11:49:04;;;;;;;2.95;1.58;;;7.20;99.90;;;;;;5075654;28;20107;-80
2022/12/28 11:51:35;;;;;;;2.30;1.38;;;7.20;99.90;;;;;;5067730;28;20025;-79
2022/12/28 11:54:23;;;;;;;2.47;1.40;;;7.10;99.90;;;;;;5064359;28;20036;-79
2022/12/28 11:56:49;;;;;;;2.45;1.27;;;7.10;99.90;;;;;;5064371;28;20051;-79
2022/12/28 11:59:32;;;;;;;2.03;1.27;;;7.10;99.90;;;;;;5061581;28;20249;-78
2022/12/28 12:02:02;;;;;;;1.65;1.35;;;7.20;99.90;;;;;;5072477;28;20036;-78
2022/12/28 12:04:35;;;;;;;1.50;1.30;;;7.20;99.90;;;;;;5070504;28;20028;-79
2022/12/28 12:07:01;;;;;;;1.63;1.00;;;7.20;99.90;;;;;;5066052;28;20111;-79
2022/12/28 12:09:42;;;;;;;2.38;1.48;;;7.20;99.90;;;;;;5067756;28;20526;-81
2022/12/28 12:12:14;;;;;;;3.58;1.50;;;7.10;99.90;;;;;;5049859;28;20032;-79
2022/12/28 12:14:42;;;;;;;1.17;1.08;;;7.20;99.90;;;;;;5071109;28;20085;-79
2022/12/28 12:17:19;;;;;;;4.40;1.20;;;7.20;99.90;;;;;;5058475;28;20403;-80
2022/12/28 12:19:52;;;;;;;3.47;1.20;;;7.20;99.90;;;;;;5074267;28;20024;-80
2022/12/28 12:22:25;;;;;;;3.58;1.60;;;7.10;99.90;;;;;;5071399;28;20599;-79
2022/12/28 12:25:01;;;;;;;1.40;1.23;;;7.10;99.90;;;;;;5059027;28;20086;-79
2022/12/28 12:27:42;;;;;;;2.88;1.20;;;7.10;99.90;;;;;;5073880;28;20051;-79
2022/12/28 12:30:11;;;;;;;1.77;1.08;;;7.10;99.90;;;;;;5065914;28;20497;-79
2022/12/28 12:32:53;;;;;;;2.00;1.00;;;7.20;99.90;;;;;;5070180;28;20020;-78
2022/12/28 12:35:27;;;;;;;2.65;1.10;;;7.20;99.90;;;;;;5068675;28;20036;-79
2022/12/28 12:38:12;;;;;;;1.75;1.00;;;7.30;99.90;;;;;;5036334;28;20029;-79
2022/12/28 12:40:49;;;;;;;1.00;0.75;;;7.30;99.90;;;;;;5052878;28;20039;-79
2022/12/28 12:43:37;;;;;;;1.63;1.20;;;7.30;99.90;;;;;;5044496;28;20031;-79
2022/12/28 12:46:12;;;;;;;2.78;1.00;;;7.30;99.90;;;;;;5053651;28;20036;-79
2022/12/28 12:48:47;;;;;;;2.07;1.10;;;7.30;99.90;;;;;;5072541;28;20486;-79
2022/12/28 12:51:47;;;;;;;1.98;1.27;;;7.30;99.90;;;;;;5058960;28;20481;-79
2022/12/28 12:54:24;;;;;;;1.10;0.95;;;7.30;99.90;;;;;;5077156;28;20031;-79
2022/12/28 12:57:12;;;;;;;4.13;1.00;;;7.30;99.90;;;;;;5080036;28;20053;-79
2022/12/28 13:00:03;;;;;;;3.15;1.27;;;7.40;99.90;;;;;;5065857;28;20032;-79
2022/12/28 13:03:16;;;;;;;1.60;1.10;;;7.30;99.90;;;;;;5083256;28;20032;-79
2022/12/28 13:05:50;;;;;;;2.42;0.95;;;7.40;99.90;;;;;;4994508;28;20089;-79
2022/12/28 13:08:29;;;;;;;2.33;1.23;;;7.30;99.90;;;;;;5063247;28;20290;-79
2022/12/28 13:10:55;;;;;;;2.17;0.90;;;7.40;99.90;;;;;;5062604;28;20039;-79
2022/12/28 13:13:31;;;;;;;3.38;1.48;;;7.40;99.90;;;;;;5070716;28;20021;-79
2022/12/28 13:16:02;;;;;;;2.53;1.70;;;7.50;99.90;;;;;;5065741;28;20034;-77
2022/12/28 13:18:28;;;;;;;1.83;1.33;;;7.50;99.90;;;;;;5068093;28;20025;-78
2022/12/28 13:20:57;;;;;;;4.35;1.60;;;7.50;99.90;;;;;;5051265;28;20036;-80
2022/12/28 13:23:24;;;;;;;2.83;1.50;;;7.50;99.90;;;;;;5069079;28;20029;-79
2022/12/28 13:25:53;;;;;;;2.03;1.50;;;7.50;99.90;;;;;;5056078;28;20035;-79
2022/12/28 13:28:46;;;;;;;3.42;1.98;;;7.50;99.90;;;;;;5073942;28;20110;-79
2022/12/28 13:31:17;;;;;;;5.35;1.88;;;7.50;99.90;;;;;;5065521;28;20017;-79
2022/12/28 13:33:53;;;;;;;6.45;2.00;;;7.50;99.90;;;;;;5075073;28;20029;-79
2022/12/28 13:36:19;;;;;;;2.25;1.70;;;7.50;99.90;;;;;;5082140;28;20028;-79
2022/12/28 13:38:45;;;;;;;3.67;1.77;;;7.50;99.90;;;;;;5042534;28;20063;-80
2022/12/28 13:41:22;;;;;;;4.28;1.90;;;7.40;99.90;;;;;;5077621;28;20555;-79